Flight Track Log - Related Links

Times and Time Zones

All times are in EDT time to prevent confusion due to time zone crossing. See the SWA1319 flight status page for this flight to view local times or setup timezone preferences in your user account.

Time Position Orientation Groundspeed Altitude Reporting Facility
EDT Latitude Longitude Course Direction KTS MPH feet Rate Location/Type
Mon 01:26:36 PM 33.6217 -86.6981 38° Northeast 234 269 4,100  Level Atlanta Center
Mon 01:27:39 PM 33.6603 -86.7417 317° Northwest 241 277 6,300 2,488 Climbing Atlanta Center
Mon 01:28:39 PM 33.6519 -86.8289 263° West 252 290 9,200 2,000 Climbing Atlanta Center
Mon 01:29:39 PM 33.6436 -86.9283 264° West 278 320 10,300 2,100 Climbing Atlanta Center
Mon 01:30:39 PM 33.6322 -87.0453 263° West 323 372 13,400 2,450 Climbing Atlanta Center
Mon 01:31:39 PM 33.6214 -87.1447 263° West 338 389 15,200 2,050 Climbing Atlanta Center
Mon 01:32:39 PM 33.6100 -87.2689 264° West 360 414 17,500 2,122 Climbing Atlanta Center
Mon 01:34:06 PM 33.5900 -87.4644 263° West 403 464 20,400 1,918 Climbing Memphis Center
Mon 01:35:06 PM 33.5761 -87.5897 262° West 405 466 22,200 1,750 Climbing Memphis Center
Mon 01:36:06 PM 33.5644 -87.7222 264° West 405 466 23,900 1,600 Climbing Memphis Center
Mon 01:37:06 PM 33.5506 -87.8547 263° West 405 466 25,400 1,650 Climbing Memphis Center
Mon 01:38:06 PM 33.5386 -87.9897 264° West 411 473 27,200 1,800 Climbing Memphis Center
Mon 01:39:06 PM 33.5242 -88.1194 262° West 411 473 29,000 1,400 Climbing Memphis Center
Mon 01:40:06 PM 33.5158 -88.2319 265° West 406 467 30,000 3,500 Climbing Memphis Center
Mon 01:41:06 PM 33.5011 -88.3592 262° West 399 459 36,000 1,400 Climbing Memphis Center
Mon 01:42:06 PM 33.4889 -88.4992 264° West 394 453 32,800 -1,100 Descending Memphis Center
Mon 01:43:06 PM 33.4864 -88.6261 269° West 389 448 33,800 900 Climbing Memphis Center
Mon 01:44:06 PM 33.4861 -88.7483 270° West 384 442 34,600 800 Climbing Memphis Center
Mon 01:45:06 PM 33.4833 -88.8778 269° West 384 442 35,400 700 Climbing Memphis Center
Mon 01:46:06 PM 33.4828 -88.9997 270° West 384 442 36,000 300 Climbing Memphis Center
Mon 01:47:06 PM 33.4819 -89.1269 270° West 384 442 36,000  Level Memphis Center
Mon 01:48:06 PM 33.4811 -89.2489 270° West 384 442 36,000  Level Memphis Center
Mon 01:49:06 PM 33.4800 -89.3733 269° West 379 436 36,000  Level Memphis Center
Mon 01:50:06 PM 33.4767 -89.5006 268° West 384 442 36,000  Level Memphis Center
Mon 01:51:06 PM 33.4756 -89.6250 269° West 384 442 36,000  Level Memphis Center
Mon 01:52:06 PM 33.4742 -89.7469 269° West 384 442 36,000  Level Memphis Center
Mon 01:53:06 PM 33.4706 -89.8717 268° West 384 442 36,000  Level Memphis Center
Mon 01:54:06 PM 33.4689 -89.9936 269° West 384 442 36,000  Level Memphis Center
Mon 01:55:06 PM 33.4669 -90.1058 269° West 384 442 36,000  Level Memphis Center
Mon 01:56:06 PM 33.4631 -90.2278 268° West 379 436 36,000  Level Memphis Center
Mon 01:57:06 PM 33.4297 -90.3422 251° West 379 436 36,000  Level Memphis Center
Mon 01:58:06 PM 33.3753 -90.4467 238° Southwest 366 421 36,000  Level Memphis Center
Mon 01:59:06 PM 33.3211 -90.5486 238° Southwest 366 421 36,000  Level Memphis Center
Mon 02:00:06 PM 33.2644 -90.6528 237° Southwest 376 433 36,000  Level Memphis Center
Mon 02:01:06 PM 33.2119 -90.7519 238° Southwest 371 427 36,000 -450 Level Memphis Center
Mon 02:02:06 PM 33.1697 -90.8661 246° West 371 427 35,100 -900 Descending Memphis Center
Mon 02:03:06 PM 33.1381 -90.9800 252° West 365 420 34,200 -550 Descending Memphis Center
Mon 02:04:06 PM 33.1081 -91.0964 253° West 365 420 34,000 -100 Descending Memphis Center
Mon 02:05:06 PM 33.0739 -91.2150 251° West 370 426 34,000  Level Memphis Center
Mon 02:06:39 PM 33.0258 -91.4081 254° West 365 420 34,000  Level Fort Worth Center
Mon 02:07:39 PM 32.9939 -91.5267 252° West 371 427 34,000  Level Fort Worth Center
Mon 02:08:39 PM 32.9617 -91.6400 251° West 371 427 34,000  Level Fort Worth Center
Mon 02:09:39 PM 32.9378 -91.7578 256° West 371 427 34,000  Level Fort Worth Center
Mon 02:10:39 PM 32.9319 -91.8622 266° West 361 415 34,000  Level Fort Worth Center
Mon 02:11:39 PM 32.9061 -91.9825 256° West 361 415 34,000  Level Fort Worth Center
Mon 02:12:39 PM 32.8842 -92.1025 258° West 361 415 34,000  Level Fort Worth Center
Mon 02:13:39 PM 32.8661 -92.2200 260° West 361 415 34,000  Level Fort Worth Center
Mon 02:14:39 PM 32.8478 -92.3372 259° West 366 421 34,000  Level Fort Worth Center
Mon 02:15:39 PM 32.8236 -92.4597 257° West 366 421 34,000  Level Fort Worth Center
Mon 02:16:39 PM 32.8072 -92.5742 260° West 366 421 34,000  Level Fort Worth Center
Mon 02:17:39 PM 32.7864 -92.6914 258° West 371 427 34,000  Level Fort Worth Center
Mon 02:18:39 PM 32.7681 -92.8108 260° West 371 427 34,000  Level Fort Worth Center
Mon 02:19:39 PM 32.7472 -92.9281 258° West 371 427 34,000  Level Fort Worth Center
Mon 02:20:39 PM 32.7264 -93.0453 258° West 371 427 34,000  Level Fort Worth Center
Mon 02:21:39 PM 32.7053 -93.1597 258° West 371 427 34,000  Level Fort Worth Center
Mon 02:22:39 PM 32.6839 -93.2767 258° West 366 421 34,000  Level Fort Worth Center
Mon 02:23:39 PM 32.6628 -93.3936 258° West 366 421 34,000  Level Fort Worth Center
Mon 02:24:39 PM 32.6433 -93.5106 259° West 366 421 34,000  Level Fort Worth Center
Mon 02:25:39 PM 32.6200 -93.6275 257° West 361 415 34,000  Level Fort Worth Center
Mon 02:26:39 PM 32.5983 -93.7417 257° West 361 415 34,000  Level Fort Worth Center
Mon 02:27:39 PM 32.5769 -93.8708 259° West 361 415 34,000  Level Fort Worth Center
Mon 02:28:39 PM 32.5550 -93.9875 257° West 361 415 34,000  Level Fort Worth Center
Mon 02:29:39 PM 32.5353 -94.1042 259° West 356 410 34,000  Level Fort Worth Center
Mon 02:30:39 PM 32.5133 -94.2231 258° West 356 410 34,000  Level Fort Worth Center
Mon 02:31:39 PM 32.4931 -94.3372 258° West 356 410 34,000  Level Fort Worth Center
Mon 02:32:39 PM 32.4686 -94.4511 256° West 356 410 34,000  Level Fort Worth Center
Mon 02:33:39 PM 32.4486 -94.5700 259° West 356 410 34,000 -200 Level Fort Worth Center
Mon 02:34:39 PM 32.4281 -94.6864 258° West 356 410 33,600 -700 Descending Fort Worth Center
Mon 02:35:39 PM 32.4369 -94.8067 275° West 362 417 32,600 -900 Descending Fort Worth Center
Mon 02:36:39 PM 32.4497 -94.9294 277° West 367 422 31,800 -900 Descending Fort Worth Center
Mon 02:37:39 PM 32.4606 -95.0594 276° West 391 450 30,800 -950 Descending Fort Worth Center
Mon 02:38:39 PM 32.4756 -95.1922 278° West 403 464 29,900 -850 Descending Fort Worth Center
Mon 02:39:39 PM 32.4858 -95.3078 276° West 408 470 29,100 -1,750 Descending Fort Worth Center
Mon 02:40:39 PM 32.4944 -95.4381 275° West 403 464 26,400 -3,100 Descending Fort Worth Center
Mon 02:41:39 PM 32.5067 -95.5708 276° West 403 464 22,900 -3,250 Descending Fort Worth Center
Mon 02:42:39 PM 32.5150 -95.7133 274° West 402 463 19,900 -3,050 Descending Fort Worth Center
Mon 02:43:39 PM 32.5250 -95.8389 275° West 387 445 16,800 -2,750 Descending Fort Worth Center
Mon 02:44:39 PM 32.5347 -95.9594 275° West 376 433 14,400 -2,550 Descending Fort Worth Center
Mon 02:45:39 PM 32.5425 -96.0753 275° West 370 426 11,700 -1,900 Descending Fort Worth Center
Mon 02:46:39 PM 32.5519 -96.1861 276° West 365 420 10,600 -1,000 Descending Fort Worth Center
Mon 02:47:39 PM 32.5592 -96.2844 275° West 319 367 9,700 -900 Descending Fort Worth Center
Mon 02:48:39 PM 32.5869 -96.3753 290° West 296 341 8,800 -950 Descending Fort Worth Center
Mon 02:49:39 PM 32.6292 -96.4489 304° West 291 335 7,800 -1,050 Descending Fort Worth Center
Mon 02:50:39 PM 32.6822 -96.5372 306° West 309 356 6,700 -1,100 Descending Fort Worth Center
Mon 02:51:39 PM 32.7450 -96.5908 324° Northwest 299 344 5,600 -850 Descending Fort Worth Center
Mon 02:52:39 PM 32.8186 -96.6519 325° Northwest 299 344 5,000 -333 Descending Fort Worth Center
Mon 02:53:45 PM 32.8833 -96.7000 328° Northwest 269 310 4,900 -47 Descending Dallas / Fort Worth TRACON
Mon 02:54:46 PM 32.9333 -96.7667 312° West 247 284 4,900 -595 Level Dallas / Fort Worth TRACON
Mon 02:55:46 PM 32.9667 -96.8333 301° West 226 260 3,700 -1,150 Descending Dallas / Fort Worth TRACON
Mon 02:56:46 PM 32.9667 -96.9000 270° West 224 258 2,600 -850 Descending Dallas / Fort Worth TRACON
Mon 02:57:46 PM 32.9167 -96.9167 196° South 207 238 2,000 -600 Descending Dallas / Fort Worth TRACON
Mon 02:58:46 PM 32.8833 -96.9000 157° South 154 177 1,400 -139 Descending Dallas / Fort Worth TRACON
Mon 03:00:39 PM 32.7589 -96.8353 156° South 149 171 1,600 35 Climbing Fort Worth Center
Mon 03:01:39 PM 32.7444 -96.8553 229° Southwest 151 174 1,500 -100 Descending Fort Worth Center

Login

Don't have an account? Register now (free) for customized features, flight alerts, and more!